• Join FlightAware (Why Join?)
  • Login
  • US Flag 
08:54AM EDT


 

Airport Tracker/Info


-or-


 

Live Flight TrackerFlight Track Log ✈ SKW5550 ✈ 18-Oct-2013 ✈ KDEN - KSMF

Flight Track Log - Related Links

Times and Time Zones

All times are in EDT time to prevent confusion due to time zone crossing. See the SKW5550 flight status page for this flight to view local times or setup timezone preferences in your user account.

Time Position Orientation Groundspeed Altitude Reporting Facility
EDT Latitude Longitude Course Direction KTS MPH feet Rate Location/Type
05:20PM 39.9333 -104.7000 303° West 189 217 7,100  Level Denver TRACON
05:21PM 39.9667 -104.7667 303° West 250 288 9,200 2,220 Climbing Denver TRACON
05:22PM 39.9500 -104.8500 255° West 254 292 11,600 2,460 Climbing Denver TRACON
05:23PM 39.9528 -104.9028 274° West 258 297 12,900 1,800 Climbing Denver Center
05:24PM 39.9569 -105.0053 273° West 281 323 14,400 1,500 Climbing Denver Center
05:25PM 39.9597 -105.1297 272° West 319 367 16,100 1,620 Climbing Denver Center
05:26PM 39.9631 -105.2497 272° West 331 381 17,800 1,560 Climbing Denver Center
05:27PM 39.9664 -105.3817 272° West 339 390 19,400 1,380 Climbing Denver Center
05:28PM 39.9706 -105.5064 273° West 346 398 20,700 1,140 Climbing Denver Center
05:29PM 39.9742 -105.6353 272° West 357 411 21,800 960 Climbing Denver Center
05:30PM 39.9744 -105.7792 270° West 371 427 22,800 960 Climbing Denver Center
05:31PM 39.9733 -105.9147 269° West 362 417 23,900 960 Climbing Denver Center
05:32PM 39.9822 -106.0486 275° West 369 425 24,900 900 Climbing Denver Center
05:33PM 39.9892 -106.1828 274° West 373 429 25,800 840 Climbing Denver Center
05:34PM 39.9953 -106.3203 273° West 380 437 26,700 840 Climbing Denver Center
05:35PM 40.0058 -106.4572 276° West 380 437 27,600 780 Climbing Denver Center
05:36PM 40.0300 -106.6106 282° West 376 433 28,400 660 Climbing Denver Center
05:37PM 40.0489 -106.7389 281° West 378 435 29,000 600 Climbing Denver Center
05:38PM 40.0725 -106.8900 282° West 380 437 29,700 600 Climbing Denver Center
05:39PM 40.0928 -107.0211 281° West 383 441 30,300 600 Climbing Denver Center
05:40PM 40.1150 -107.1747 281° West 385 443 31,000 540 Climbing Denver Center
05:41PM 40.1347 -107.3050 281° West 383 441 31,500 480 Climbing Denver Center
05:42PM 40.1575 -107.4550 281° West 379 436 32,000 240 Climbing Denver Center
05:43PM 40.1772 -107.5864 281° West 382 440 32,000  Level Denver Center
05:44PM 40.1986 -107.7425 280° West 389 448 32,000  Level Denver Center
05:45PM 40.2186 -107.8803 281° West 398 458 32,000  Level Denver Center
05:46PM 40.2422 -108.0442 281° West 406 467 32,000  Level Denver Center
05:47PM 40.2608 -108.1825 280° West 407 468 32,000  Level Denver Center
05:49PM 40.2842 -108.3433 281° West 405 466 32,000  Level Denver Center
05:49PM 40.2931 -108.4153 279° West 408 470 32,000  Level Salt Lake Center
05:50PM 40.3122 -108.5542 280° West 405 466 32,000  Level Salt Lake Center
05:51PM 40.3250 -108.6411 281° West 401 461 32,000  Level Denver Center
05:52PM 40.3433 -108.7806 280° West 404 465 32,000  Level Denver Center
05:53PM 40.3644 -108.9411 280° West 401 461 32,000  Level Denver Center
05:53PM 40.3736 -109.0094 280° West 402 463 32,000  Level Salt Lake Center
05:54PM 40.3919 -109.1475 280° West 402 463 32,000  Level Salt Lake Center
05:55PM 40.4128 -109.3072 280° West 401 461 32,000  Level Salt Lake Center
05:56PM 40.4306 -109.4444 280° West 400 460 32,000  Level Salt Lake Center
05:57PM 40.4508 -109.6061 279° West 401 461 32,000  Level Salt Lake Center
05:58PM 40.4686 -109.7436 280° West 401 461 32,000  Level Salt Lake Center
05:59PM 40.4883 -109.9042 279° West 400 460 32,000  Level Salt Lake Center
06:00PM 40.5050 -110.0439 279° West 404 465 32,000  Level Salt Lake Center
06:01PM 40.5203 -110.2083 277° West 406 467 32,000  Level Salt Lake Center
06:02PM 40.5347 -110.3481 278° West 405 466 32,000  Level Salt Lake Center
06:04PM 40.5494 -110.5131 277° West 407 468 32,000  Level Salt Lake Center
06:05PM 40.5617 -110.6439 277° West 405 466 32,000  Level Salt Lake Center
06:06PM 40.5758 -110.7900 277° West 405 466 32,000  Level Salt Lake Center
06:07PM 40.5883 -110.9364 276° West 403 464 32,000  Level Salt Lake Center
06:08PM 40.6050 -111.1131 277° West 405 466 32,000  Level Salt Lake Center
06:09PM 40.6181 -111.2586 277° West 402 463 32,000  Level Salt Lake Center
06:10PM 40.6306 -111.4042 277° West 398 458 32,000  Level Salt Lake Center
06:11PM 40.6422 -111.5508 276° West 400 460 32,000  Level Salt Lake Center
06:12PM 40.6558 -111.6969 277° West 400 460 32,000  Level Salt Lake Center
06:13PM 40.6667 -111.8439 276° West 400 460 32,000  Level Salt Lake Center
06:14PM 40.6794 -111.9917 277° West 402 463 32,000  Level Salt Lake Center
06:15PM 40.6906 -112.1389 276° West 404 465 32,000  Level Salt Lake Center
06:16PM 40.7044 -112.3167 276° West 404 465 32,000  Level Salt Lake Center
06:17PM 40.7158 -112.4644 276° West 407 468 32,000  Level Salt Lake Center
06:18PM 40.7222 -112.6128 273° West 406 467 32,000  Level Salt Lake Center
06:19PM 40.7242 -112.7617 271° West 407 468 32,000  Level Salt Lake Center
06:20PM 40.7250 -112.9111 270° West 407 468 32,000  Level Salt Lake Center
06:21PM 40.7253 -113.0594 270° West 405 466 32,000  Level Salt Lake Center
06:22PM 40.7261 -113.2083 270° West 406 467 32,000  Level Salt Lake Center
06:23PM 40.7289 -113.3861 271° West 404 465 32,000  Level Salt Lake Center
06:24PM 40.7275 -113.5336 269° West 404 465 32,000  Level Salt Lake Center
06:25PM 40.7264 -113.6814 269° West 404 465 32,000  Level Salt Lake Center
06:26PM 40.7250 -113.8283 269° West 402 463 32,000  Level Salt Lake Center
06:27PM 40.7206 -113.9769 268° West 405 466 32,000  Level Salt Lake Center
06:28PM 40.7158 -114.1239 268° West 404 465 32,000  Level Salt Lake Center
06:29PM 40.7081 -114.3008 267° West 403 464 32,000  Level Salt Lake Center
06:30PM 40.7033 -114.4494 268° West 405 466 32,000  Level Salt Lake Center
06:31PM 40.6997 -114.5969 268° West 405 466 32,000  Level Salt Lake Center
06:32PM 40.6928 -114.7447 267° West 405 466 32,000  Level Salt Lake Center
06:33PM 40.6853 -114.8944 266° West 405 466 32,000  Level Salt Lake Center
06:34PM 40.6769 -115.0603 266° West 405 466 32,000  Level Salt Lake Center
06:35PM 40.6661 -115.2019 264° West 406 467 32,000  Level Salt Lake Center
06:37PM 40.6564 -115.3661 266° West 404 465 32,000  Level Salt Lake Center
06:38PM 40.6503 -115.5100 267° West 408 470 32,000  Level Salt Lake Center
06:39PM 40.6456 -115.6533 268° West 410 472 32,000  Level Salt Lake Center
06:40PM 40.6364 -115.8219 266° West 412 474 32,000  Level Salt Lake Center
06:41PM 40.6283 -115.9656 266° West 412 474 32,000  Level Salt Lake Center
06:42PM 40.6189 -116.1336 266° West 413 475 32,000  Level Salt Lake Center
06:43PM 40.6100 -116.2783 265° West 414 476 32,000  Level Salt Lake Center
06:44PM 40.5986 -116.4472 265° West 416 479 32,000  Level Salt Lake Center
06:45PM 40.5903 -116.5917 266° West 416 479 32,000  Level Salt Lake Center
06:46PM 40.5797 -116.7592 265° West 416 479 32,000  Level Salt Lake Center
06:47PM 40.5692 -116.9019 264° West 417 480 32,000  Level Salt Lake Center
06:48PM 40.5194 -117.0608 248° West 434 499 32,000  Level Salt Lake Center
06:49PM 40.4700 -117.1947 244° Southwest 430 495 32,000  Level Salt Lake Center
06:50PM 40.4133 -117.3506 245° Southwest 426 490 32,000  Level Salt Lake Center
06:51PM 40.3633 -117.4844 244° Southwest 427 491 32,000  Level Salt Lake Center
06:52PM 40.3142 -117.6186 244° Southwest 427 491 32,000  Level Salt Lake Center
06:53PM 40.2556 -117.7736 244° Southwest 426 490 32,000  Level Salt Lake Center
06:54PM 40.2053 -117.9075 244° Southwest 427 491 32,000  Level Salt Lake Center
06:55PM 40.1458 -118.0639 244° Southwest 430 495 32,000  Level Salt Lake Center
06:56PM 40.0958 -118.1972 244° Southwest 428 493 32,000  Level Salt Lake Center
06:57PM 40.0381 -118.3500 244° Southwest 428 493 32,000  Level Salt Lake Center
06:58PM 39.9867 -118.4883 244° Southwest 426 490 32,000  Level Salt Lake Center
06:59PM 39.9231 -118.6558 244° Southwest 429 494 32,000  Level Oakland Center
07:00PM 39.8700 -118.7931 243° Southwest 427 491 32,000  Level Oakland Center
07:01PM 39.8167 -118.9289 243° Southwest 424 488 32,000 -420 Level Oakland Center
07:02PM 39.7619 -119.0689 243° Southwest 433 498 31,200 -1,020 Descending Oakland Center
07:03PM 39.7042 -119.2153 243° Southwest 455 524 30,000 -1,320 Descending Oakland Center
07:04PM 39.6347 -119.3903 243° Southwest 457 526 28,600 -1,320 Descending Oakland Center
07:05PM 39.5806 -119.5306 243° Southwest 440 506 27,400 -1,200 Descending Oakland Center
07:06PM 39.5264 -119.6650 242° Southwest 425 489 26,200 -1,200 Descending Oakland Center
07:07PM 39.4589 -119.7828 233° Southwest 409 471 25,000 -1,080 Descending Oakland Center
07:09PM 39.3947 -119.8969 234° Southwest 396 456 24,000 -540 Descending Oakland Center
07:10PM 39.3314 -120.0061 233° Southwest 380 437 24,000 -540 Level Oakland Center
07:11PM 39.2694 -120.1100 232° Southwest 367 422 22,900 -1,440 Descending Oakland Center
07:12PM 39.2139 -120.2136 235° Southwest 339 390 21,100 -1,980 Descending Oakland Center
07:13PM 39.1683 -120.3228 242° Southwest 347 399 18,900 -2,100 Descending Oakland Center
07:14PM 39.1392 -120.4364 252° West 338 389 16,900 -2,220 Descending Oakland Center
07:15PM 39.1053 -120.5678 252° West 325 374 14,400 -2,280 Descending Oakland Center
07:16PM 39.0769 -120.6742 251° West 316 364 12,300 -1,860 Descending Oakland Center
07:17PM 39.0506 -120.7775 252° West 307 353 10,600 -1,740 Descending Oakland Center
07:18PM 39.0258 -120.8744 252° West 291 335 8,800 -1,500 Descending Oakland Center
07:19PM 39.0025 -120.9661 252° West 274 315 7,500 -1,560 Descending Oakland Center
07:20PM 38.9767 -121.0614 251° West 254 292 5,700 -1,200 Descending Oakland Center
07:21PM 38.9578 -121.1350 252° West 250 288 5,100 -420 Descending Oakland Center
07:21PM 38.9500 -121.1833 258° West 253 291 5,100 -120 Level Northern Cal TRACON
07:22PM 38.9167 -121.3000 250° West 263 303 5,000 -480 Descending Northern Cal TRACON
07:23PM 38.9000 -121.3667 252° West 237 273 4,100 -900 Descending Northern Cal TRACON
07:24PM 38.8833 -121.4500 256° West 206 237 3,300 -660 Descending Northern Cal TRACON
07:25PM 38.8667 -121.5000 247° West 175 201 2,900 -480 Descending Northern Cal TRACON
07:26PM 38.8333 -121.5500 229° Southwest 185 213 2,500 -480 Descending Northern Cal TRACON
07:27PM 38.7833 -121.5833 207° Southwest 174 200 1,900 -780 Descending Northern Cal TRACON
07:28PM 38.7500 -121.5833 180° South 144 166 900 -1,020 Descending Northern Cal TRACON
07:31PM 38.6954 -121.5908 218° Southwest  Level Estimated
07:38PM 38.6954 -121.5908 218° Southwest  Level Estimated
07:39PM 38.6954 -121.5908 218° Southwest  Level Estimated